Time,TemperatureF,DewpointF,PressureIn,WindDirection,WindDirectionDegrees,WindSpeedMPH,WindSpeedGustMPH,Humidity,HourlyPrecipIn,Conditions,Clouds,dailyrainin,SoftwareType,DateUTC
2013-02-03 00:00:00,13.0,10.9,30.11,NW,309,7.0,13.6,91,0.00,,,0.00,VWS V14.01,2013-02-03 06:00:00,
2013-02-03 00:10:00,12.7,10.6,30.12,NW,308,12.0,14.7,91,0.00,,,0.00,VWS V14.01,2013-02-03 06:10:00,
2013-02-03 00:15:00,12.5,10.1,30.12,NW,304,5.0,14.7,90,0.00,,,0.00,VWS V14.01,2013-02-03 06:15:00,
2013-02-03 00:20:00,12.3,9.9,30.12,NW,305,9.0,15.7,90,0.00,,,0.00,VWS V14.01,2013-02-03 06:20:00,
2013-02-03 00:25:00,12.2,9.8,30.13,NW,326,11.0,14.7,90,0.00,,,0.00,VWS V14.01,2013-02-03 06:25:00,
2013-02-03 00:30:00,12.1,9.5,30.13,WNW,293,15.0,15.7,89,0.00,,,0.00,VWS V14.01,2013-02-03 06:30:00,
2013-02-03 00:35:00,11.8,9.2,30.13,NW,309,11.0,15.7,89,0.00,,,0.00,VWS V14.01,2013-02-03 06:35:00,
2013-02-03 00:40:00,11.5,8.9,30.14,NW,309,9.0,14.7,89,0.00,,,0.00,VWS V14.01,2013-02-03 06:40:00,
2013-02-03 00:45:00,11.2,8.6,30.14,NW,315,10.0,13.6,89,0.00,,BKN038,0.00,VWS V14.01,2013-02-03 06:45:00,
2013-02-03 00:50:00,11.2,8.6,30.14,NW,314,10.0,15.7,89,0.00,,BKN038,0.00,VWS V14.01,2013-02-03 06:50:00,
2013-02-03 00:55:00,11.0,8.4,30.14,NW,317,6.0,14.7,89,0.00,,BKN038,0.00,VWS V14.01,2013-02-03 06:55:00,
2013-02-03 01:00:00,11.2,8.6,30.15,NW,314,6.0,13.6,89,0.00,,BKN038,0.00,VWS V14.01,2013-02-03 07:00:00,
2013-02-03 01:10:00,11.1,8.5,30.15,NW,309,12.0,13.6,89,0.00,,BKN038,0.00,VWS V14.01,2013-02-03 07:10:00,
2013-02-03 01:15:00,11.0,8.1,30.15,WNW,297,8.0,12.6,88,0.00,,BKN038,0.00,VWS V14.01,2013-02-03 07:15:00,
2013-02-03 01:20:00,11.0,8.1,30.15,WNW,303,9.0,12.6,88,0.00,,BKN038,0.00,VWS V14.01,2013-02-03 07:20:00,
2013-02-03 01:25:00,10.9,8.0,30.15,WNW,290,7.0,11.5,88,0.00,,,0.00,VWS V14.01,2013-02-03 07:25:00,
2013-02-03 01:30:00,10.7,7.8,30.16,NW,311,7.0,13.6,88,0.00,,,0.00,VWS V14.01,2013-02-03 07:30:00,
2013-02-03 01:35:00,10.6,7.7,30.16,NW,309,5.0,8.4,88,0.00,,,0.00,VWS V14.01,2013-02-03 07:35:00,
2013-02-03 01:40:00,10.6,7.7,30.16,NW,309,5.0,5.2,88,0.00,,,0.00,VWS V14.01,2013-02-03 07:40:00,
2013-02-03 01:45:00,10.6,7.7,30.16,NW,309,5.0,5.2,88,0.00,,,0.00,VWS V14.01,2013-02-03 07:45:00,
2013-02-03 01:50:00,10.6,7.7,30.16,NW,309,5.0,5.2,88,0.00,,,0.00,VWS V14.01,2013-02-03 07:50:00,
2013-02-03 01:55:00,10.6,7.7,30.16,NW,309,5.0,5.2,88,0.00,,,0.00,VWS V14.01,2013-02-03 07:55:00,
2013-02-03 02:00:00,9.7,7.3,30.15,NW,307,2.0,5.2,90,0.00,,,0.00,VWS V14.01,2013-02-03 08:00:00,
2013-02-03 02:10:00,9.3,6.9,30.16,WNW,299,3.0,5.2,90,0.00,,,0.00,VWS V14.01,2013-02-03 08:10:00,
2013-02-03 02:15:00,9.0,6.6,30.16,WNW,293,3.0,7.3,90,0.00,,,0.00,VWS V14.01,2013-02-03 08:15:00,
2013-02-03 02:20:00,8.6,6.2,30.16,WNW,298,1.0,4.2,90,0.00,,,0.00,VWS V14.01,2013-02-03 08:20:00,
2013-02-03 02:25:00,8.3,5.9,30.16,NW,305,4.0,5.2,90,0.00,,,0.00,VWS V14.01,2013-02-03 08:25:00,
2013-02-03 02:30:00,8.1,5.8,30.16,WNW,290,2.0,6.3,90,0.00,,,0.00,VWS V14.01,2013-02-03 08:30:00,
2013-02-03 02:35:00,7.9,5.3,30.16,WNW,302,3.0,5.2,89,0.00,,,0.00,VWS V14.01,2013-02-03 08:35:00,
2013-02-03 02:40:00,7.7,5.1,30.16,WNW,302,5.0,5.2,89,0.00,,,0.00,VWS V14.01,2013-02-03 08:40:00,
2013-02-03 02:50:00,7.3,4.7,30.17,NW,317,5.0,7.3,89,0.00,,,0.00,VWS V14.01,2013-02-03 08:50:00,
2013-02-03 02:55:00,7.3,4.7,30.17,WNW,292,5.0,6.3,89,0.00,,,0.00,VWS V14.01,2013-02-03 08:55:00,
2013-02-03 03:00:00,7.2,4.6,30.16,NW,311,3.0,6.3,89,0.00,,,0.00,VWS V14.01,2013-02-03 09:00:00,
2013-02-03 03:10:00,7.1,4.3,30.17,NW,306,6.0,6.3,88,0.00,,CLR,0.00,VWS V14.01,2013-02-03 09:10:00,
2013-02-03 03:15:00,7.1,4.3,30.17,NW,306,4.0,9.4,88,0.00,,CLR,0.00,VWS V14.01,2013-02-03 09:15:00,
2013-02-03 03:20:00,7.0,4.2,30.17,NW,305,4.0,6.3,88,0.00,,CLR,0.00,VWS V14.01,2013-02-03 09:20:00,
2013-02-03 03:25:00,6.7,3.9,30.17,NW,306,3.0,7.3,88,0.00,,CLR,0.00,VWS V14.01,2013-02-03 09:25:00,
2013-02-03 03:30:00,6.7,3.9,30.17,West,272,5.0,8.4,88,0.00,,CLR,0.00,VWS V14.01,2013-02-03 09:30:00,
2013-02-03 03:35:00,6.8,4.0,30.17,WNW,296,5.0,8.4,88,0.00,,CLR,0.00,VWS V14.01,2013-02-03 09:35:00,
2013-02-03 03:40:00,7.1,4.3,30.17,NW,306,3.0,10.5,88,0.00,,CLR,0.00,VWS V14.01,2013-02-03 09:40:00,
2013-02-03 03:45:00,7.2,4.1,30.17,WNW,288,5.0,9.4,87,0.00,,SCT070,0.00,VWS V14.01,2013-02-03 09:45:00,
2013-02-03 03:50:00,7.2,4.1,30.17,NW,306,4.0,9.4,87,0.00,,SCT070,0.00,VWS V14.01,2013-02-03 09:50:00,
2013-02-03 03:55:00,6.9,3.8,30.17,WNW,294,1.0,5.2,87,0.00,,SCT070,0.00,VWS V14.01,2013-02-03 09:55:00,
2013-02-03 04:00:00,6.4,3.3,30.16,WNW,298,2.0,4.2,87,0.00,,SCT070,0.00,VWS V14.01,2013-02-03 10:00:00,
2013-02-03 04:10:00,5.7,2.9,30.16,WNW,302,2.0,4.2,88,0.00,,CLR,0.00,VWS V14.01,2013-02-03 10:10:00,
2013-02-03 04:15:00,5.6,2.8,30.17,WNW,287,3.0,4.2,88,0.00,,CLR,0.00,VWS V14.01,2013-02-03 10:15:00,
2013-02-03 04:20:00,5.2,2.4,30.17,NW,308,0.0,4.2,88,0.00,,CLR,0.00,VWS V14.01,2013-02-03 10:20:00,
2013-02-03 04:25:00,5.0,2.2,30.17,WNW,300,1.0,2.1,88,0.00,,BKN070,0.00,VWS V14.01,2013-02-03 10:25:00,
2013-02-03 04:30:00,5.1,2.8,30.18,WNW,300,3.0,7.3,90,0.00,,BKN070,0.00,VWS V14.01,2013-02-03 10:30:00,
2013-02-03 04:35:00,5.5,3.2,30.17,WNW,290,3.0,5.2,90,0.00,,BKN070,0.00,VWS V14.01,2013-02-03 10:35:00,
2013-02-03 04:40:00,5.4,3.1,30.17,West,267,2.0,5.2,90,0.00,,BKN070,0.00,VWS V14.01,2013-02-03 10:40:00,
2013-02-03 04:45:00,5.3,2.7,30.17,WNW,292,1.0,3.1,89,0.00,,OVC070,0.00,VWS V14.01,2013-02-03 10:45:00,
2013-02-03 04:50:00,5.0,2.4,30.17,WNW,303,2.0,2.1,89,0.00,,OVC070,0.00,VWS V14.01,2013-02-03 10:50:00,
2013-02-03 04:55:00,5.2,2.9,30.17,WNW,302,2.0,3.1,90,0.00,,OVC070,0.00,VWS V14.01,2013-02-03 10:55:00,
2013-02-03 05:00:00,5.4,3.1,30.17,WNW,296,2.0,3.1,90,0.00,,OVC070,0.00,VWS V14.01,2013-02-03 11:00:00,
2013-02-03 05:10:00,5.4,2.8,30.17,WNW,293,0.0,2.1,89,0.00,,OVC070,0.00,VWS V14.01,2013-02-03 11:10:00,
2013-02-03 05:15:00,5.0,2.2,30.18,WNW,286,2.0,3.1,88,0.00,,OVC070,0.00,VWS V14.01,2013-02-03 11:15:00,
2013-02-03 05:20:00,4.7,2.2,30.18,West,276,2.0,3.1,89,0.00,,OVC070,0.00,VWS V14.01,2013-02-03 11:20:00,
2013-02-03 05:25:00,4.8,2.2,30.17,WNW,293,1.0,4.2,89,0.00,,SCT070,0.00,VWS V14.01,2013-02-03 11:25:00,
2013-02-03 05:30:00,4.8,2.2,30.17,WNW,295,0.0,2.1,89,0.00,,SCT070,0.00,VWS V14.01,2013-02-03 11:30:00,
2013-02-03 05:35:00,4.8,2.2,30.17,WNW,286,0.0,3.1,89,0.00,,SCT070,0.00,VWS V14.01,2013-02-03 11:35:00,
2013-02-03 05:40:00,4.8,2.2,30.16,WNW,286,0.0,1.0,89,0.00,,SCT070,0.00,VWS V14.01,2013-02-03 11:40:00,
2013-02-03 05:45:00,4.6,2.0,30.15,WNW,286,0.0,0.0,89,0.00,,CLR,0.00,VWS V14.01,2013-02-03 11:45:00,
2013-02-03 05:50:00,4.4,1.9,30.16,WNW,286,0.0,0.0,89,0.00,,CLR,0.00,VWS V14.01,2013-02-03 11:50:00,
2013-02-03 05:55:00,4.1,1.6,30.16,WNW,286,0.0,0.0,89,0.00,,CLR,0.00,VWS V14.01,2013-02-03 11:55:00,
2013-02-03 06:00:00,4.0,1.5,30.15,WNW,286,0.0,0.0,89,0.00,,CLR,0.00,VWS V14.01,2013-02-03 12:00:00,
2013-02-03 06:05:00,4.1,1.6,30.16,WNW,286,0.0,0.0,89,0.00,,BKN100,0.00,VWS V14.01,2013-02-03 12:05:00,
2013-02-03 06:10:00,4.3,2.0,30.16,WNW,286,0.0,0.0,90,0.00,,BKN100,0.00,VWS V14.01,2013-02-03 12:10:00,
2013-02-03 06:15:00,4.6,2.3,30.16,WNW,286,0.0,0.0,90,0.00,,BKN100,0.00,VWS V14.01,2013-02-03 12:15:00,
2013-02-03 06:20:00,4.7,2.4,30.16,WNW,286,0.0,0.0,90,0.00,,BKN100,0.00,VWS V14.01,2013-02-03 12:20:00,
2013-02-03 06:25:00,5.1,2.8,30.16,WNW,286,0.0,0.0,90,0.00,,OVC100,0.00,VWS V14.01,2013-02-03 12:25:00,
2013-02-03 06:30:00,5.3,3.0,30.16,WNW,286,0.0,0.0,90,0.00,,OVC100,0.00,VWS V14.01,2013-02-03 12:30:00,
2013-02-03 06:35:00,5.4,3.1,30.16,WNW,286,0.0,0.0,90,0.00,,OVC100,0.00,VWS V14.01,2013-02-03 12:35:00,
2013-02-03 06:40:00,5.5,3.2,30.16,WNW,286,0.0,0.0,90,0.00,,OVC100,0.00,VWS V14.01,2013-02-03 12:40:00,
2013-02-03 06:45:00,5.6,3.3,30.16,WNW,286,0.0,0.0,90,0.00,,OVC100,0.00,VWS V14.01,2013-02-03 12:45:00,
2013-02-03 06:50:00,5.6,3.3,30.15,WNW,286,0.0,0.0,90,0.00,,OVC100,0.00,VWS V14.01,2013-02-03 12:50:00,
2013-02-03 06:55:00,5.7,3.4,30.15,WNW,286,0.0,0.0,90,0.00,,OVC100,0.00,VWS V14.01,2013-02-03 12:55:00,
2013-02-03 07:00:00,5.8,3.5,30.15,WNW,286,0.0,0.0,90,0.00,,OVC100,0.00,VWS V14.01,2013-02-03 13:00:00,
2013-02-03 07:05:00,6.0,3.7,30.15,WNW,286,0.0,0.0,90,0.00,,OVC100,0.00,VWS V14.01,2013-02-03 13:05:00,
2013-02-03 07:15:00,6.4,4.1,30.15,WNW,286,0.0,0.0,90,0.00,,OVC100,0.00,VWS V14.01,2013-02-03 13:15:00,
2013-02-03 07:20:00,6.5,4.2,30.16,WNW,286,0.0,0.0,90,0.00,,OVC100,0.00,VWS V14.01,2013-02-03 13:20:00,
2013-02-03 07:25:00,6.5,4.2,30.16,WNW,286,0.0,0.0,90,0.00,,OVC100,0.00,VWS V14.01,2013-02-03 13:25:00,
2013-02-03 07:30:00,6.8,4.5,30.16,WNW,286,0.0,0.0,90,0.00,,OVC100,0.00,VWS V14.01,2013-02-03 13:30:00,
2013-02-03 07:35:00,6.9,4.6,30.15,WNW,285,1.0,1.0,90,0.00,,OVC100,0.00,VWS V14.01,2013-02-03 13:35:00,
2013-02-03 07:40:00,7.2,4.9,30.16,SW,236,2.0,3.1,90,0.00,,OVC100,0.00,VWS V14.01,2013-02-03 13:40:00,
2013-02-03 07:45:00,7.5,5.2,30.16,West,261,0.0,3.1,90,0.00,,OVC070,0.00,VWS V14.01,2013-02-03 13:45:00,
2013-02-03 07:55:00,7.8,5.5,30.15,West,271,0.0,0.0,90,0.00,,OVC070,0.00,VWS V14.01,2013-02-03 13:55:00,
2013-02-03 08:00:00,7.9,5.6,30.16,West,271,0.0,0.0,90,0.00,,OVC070,0.00,VWS V14.01,2013-02-03 14:00:00,
2013-02-03 08:05:00,8.0,5.7,30.15,West,271,0.0,0.0,90,0.00,,OVC060,0.00,VWS V14.01,2013-02-03 14:05:00,
2013-02-03 08:15:00,8.3,5.9,30.15,West,271,0.0,0.0,90,0.00,,OVC060,0.00,VWS V14.01,2013-02-03 14:15:00,
2013-02-03 08:20:00,8.6,6.2,30.16,West,271,1.0,1.0,90,0.00,,OVC060,0.00,VWS V14.01,2013-02-03 14:20:00,
2013-02-03 08:25:00,9.0,6.9,30.16,West,271,0.0,2.1,91,0.00,,OVC060,0.00,VWS V14.01,2013-02-03 14:25:00,
2013-02-03 08:30:00,9.3,7.2,30.15,West,271,0.0,0.0,91,0.00,,OVC060,0.00,VWS V14.01,2013-02-03 14:30:00,
2013-02-03 08:35:00,9.6,7.5,30.16,West,271,0.0,2.1,91,0.00,,OVC060,0.00,VWS V14.01,2013-02-03 14:35:00,
2013-02-03 08:40:00,9.9,7.8,30.16,West,271,0.0,0.0,91,0.00,,OVC060,0.00,VWS V14.01,2013-02-03 14:40:00,
2013-02-03 08:45:00,10.3,8.2,30.16,West,271,0.0,0.0,91,0.00,,OVC070,0.00,VWS V14.01,2013-02-03 14:45:00,
2013-02-03 08:50:00,10.8,8.7,30.16,NW,317,0.0,2.1,91,0.00,,OVC070,0.00,VWS V14.01,2013-02-03 14:50:00,
2013-02-03 08:55:00,11.0,8.6,30.16,NW,304,0.0,3.1,90,0.00,,OVC070,0.00,VWS V14.01,2013-02-03 14:55:00,
2013-02-03 09:00:00,11.2,8.6,30.15,WNW,302,0.0,2.1,89,0.00,,OVC070,0.00,VWS V14.01,2013-02-03 15:00:00,
2013-02-03 09:05:00,11.3,8.7,30.15,NW,313,2.0,3.1,89,0.00,,OVC070,0.00,VWS V14.01,2013-02-03 15:05:00,
2013-02-03 09:10:00,11.4,8.5,30.15,NW,321,4.0,5.2,88,0.00,,OVC070,0.00,VWS V14.01,2013-02-03 15:10:00,
2013-02-03 09:15:00,11.4,8.5,30.16,NW,304,2.0,5.2,88,0.00,,OVC070,0.00,VWS V14.01,2013-02-03 15:15:00,
2013-02-03 09:20:00,11.4,8.5,30.16,NW,307,0.0,6.3,88,0.00,,OVC070,0.00,VWS V14.01,2013-02-03 15:20:00,
2013-02-03 09:25:00,11.3,8.7,30.16,NW,310,3.0,5.2,89,0.00,,,0.00,VWS V14.01,2013-02-03 15:25:00,
2013-02-03 09:30:00,11.3,8.7,30.16,NW,306,2.0,4.2,89,0.00,,,0.00,VWS V14.01,2013-02-03 15:30:00,
2013-02-03 09:35:00,11.3,8.7,30.15,NW,317,0.0,4.2,89,0.00,,,0.00,VWS V14.01,2013-02-03 15:35:00,
2013-02-03 09:40:00,11.3,8.7,30.15,NW,308,2.0,4.2,89,0.00,,,0.00,VWS V14.01,2013-02-03 15:40:00,
2013-02-03 09:45:00,11.4,9.0,30.15,NW,309,0.0,3.1,90,0.00,,OVC060,0.00,VWS V14.01,2013-02-03 15:45:00,
2013-02-03 09:50:00,11.5,9.1,30.15,NW,315,0.0,3.1,90,0.00,,OVC060,0.00,VWS V14.01,2013-02-03 15:50:00,
2013-02-03 09:55:00,11.7,9.3,30.15,NW,309,0.0,3.1,90,0.00,,OVC060,0.00,VWS V14.01,2013-02-03 15:55:00,
2013-02-03 10:00:00,11.7,9.1,30.15,NW,315,2.0,3.1,89,0.00,,OVC060,0.00,VWS V14.01,2013-02-03 16:00:00,
2013-02-03 10:05:00,11.7,9.1,30.15,NW,310,3.0,4.2,89,0.00,,,0.00,VWS V14.01,2013-02-03 16:05:00,
2013-02-03 10:10:00,11.7,9.1,30.15,NW,307,3.0,4.2,89,0.00,,,0.00,VWS V14.01,2013-02-03 16:10:00,
2013-02-03 10:15:00,11.7,9.1,30.16,NW,313,2.0,4.2,89,0.00,,,0.00,VWS V14.01,2013-02-03 16:15:00,
2013-02-03 10:20:00,11.7,9.1,30.16,NW,311,0.0,4.2,89,0.00,,,0.00,VWS V14.01,2013-02-03 16:20:00,
2013-02-03 10:25:00,11.7,9.1,30.15,NW,306,2.0,4.2,89,0.00,,OVC050,0.00,VWS V14.01,2013-02-03 16:25:00,
2013-02-03 10:30:00,11.7,9.1,30.16,WNW,301,1.0,3.1,89,0.00,,OVC050,0.00,VWS V14.01,2013-02-03 16:30:00,
2013-02-03 10:35:00,11.8,8.9,30.16,NW,310,2.0,5.2,88,0.00,,OVC050,0.00,VWS V14.01,2013-02-03 16:35:00,
2013-02-03 10:40:00,11.7,8.6,30.15,NW,315,2.0,4.2,87,0.00,,OVC050,0.00,VWS V14.01,2013-02-03 16:40:00,
2013-02-03 10:45:00,11.7,8.6,30.16,NW,325,2.0,3.1,87,0.00,,OVC050,0.00,VWS V14.01,2013-02-03 16:45:00,
2013-02-03 10:50:00,11.8,8.6,30.15,NW,318,1.0,4.2,87,0.00,,OVC050,0.00,VWS V14.01,2013-02-03 16:50:00,
2013-02-03 10:55:00,11.9,9.0,30.15,WNW,301,1.0,3.1,88,0.00,,OVC050,0.00,VWS V14.01,2013-02-03 16:55:00,
2013-02-03 11:00:00,11.9,9.0,30.15,WNW,301,1.0,1.0,88,0.00,,OVC050,0.00,VWS V14.01,2013-02-03 17:00:00,
2013-02-03 11:05:00,11.9,9.0,30.15,WNW,301,1.0,1.0,88,0.00,,OVC050,0.00,VWS V14.01,2013-02-03 17:05:00,
2013-02-03 11:10:00,11.9,9.0,30.14,WNW,301,1.0,1.0,88,0.00,,OVC050,0.00,VWS V14.01,2013-02-03 17:10:00,
2013-02-03 11:15:00,11.9,9.0,30.14,WNW,301,1.0,1.0,88,0.00,,OVC050,0.00,VWS V14.01,2013-02-03 17:15:00,
2013-02-03 11:20:00,12.5,9.3,30.14,NNW,344,0.0,1.0,87,0.00,,OVC050,0.00,VWS V14.01,2013-02-03 17:20:00,
2013-02-03 11:25:00,12.5,9.1,30.14,NW,323,0.0,3.1,86,0.00,,OVC050,0.00,VWS V14.01,2013-02-03 17:25:00,
2013-02-03 11:30:00,12.7,9.5,30.14,NW,320,0.0,1.0,87,0.00,,OVC050,0.00,VWS V14.01,2013-02-03 17:30:00,
2013-02-03 11:35:00,12.6,9.2,30.14,NW,306,2.0,3.1,86,0.00,,OVC050,0.00,VWS V14.01,2013-02-03 17:35:00,
2013-02-03 11:40:00,12.7,9.3,30.14,NW,321,0.0,2.1,86,0.00,,OVC050,0.00,VWS V14.01,2013-02-03 17:40:00,
2013-02-03 11:45:00,12.7,9.0,30.13,NNW,328,0.0,3.1,85,0.00,,OVC050,0.00,VWS V14.01,2013-02-03 17:45:00,
2013-02-03 11:50:00,12.8,9.4,30.13,NNE,15,0.0,1.0,86,0.00,,OVC050,0.00,VWS V14.01,2013-02-03 17:50:00,
2013-02-03 11:55:00,13.0,9.6,30.12,NNE,15,0.0,0.0,86,0.00,,OVC050,0.00,VWS V14.01,2013-02-03 17:55:00,
2013-02-03 12:00:00,13.2,9.5,30.13,NNE,15,0.0,0.0,85,0.00,,OVC050,0.00,VWS V14.01,2013-02-03 18:00:00,
2013-02-03 12:05:00,13.2,9.5,30.13,NNE,15,0.0,0.0,85,0.00,,OVC048,0.00,VWS V14.01,2013-02-03 18:05:00,
2013-02-03 12:10:00,13.3,9.6,30.12,NNE,15,0.0,0.0,85,0.00,,OVC048,0.00,VWS V14.01,2013-02-03 18:10:00,
2013-02-03 12:15:00,13.6,9.9,30.12,NNE,15,0.0,0.0,85,0.00,,OVC048,0.00,VWS V14.01,2013-02-03 18:15:00,
2013-02-03 12:20:00,13.8,9.8,30.11,NNE,15,0.0,0.0,84,0.00,,OVC048,0.00,VWS V14.01,2013-02-03 18:20:00,
2013-02-03 12:25:00,13.7,9.7,30.11,NNE,15,0.0,0.0,84,0.00,,OVC046,0.00,VWS V14.01,2013-02-03 18:25:00,
2013-02-03 12:30:00,13.7,9.5,30.11,NNE,15,0.0,0.0,83,0.00,,OVC046,0.00,VWS V14.01,2013-02-03 18:30:00,
2013-02-03 12:35:00,14.0,10.0,30.11,NNE,15,0.0,0.0,84,0.00,,OVC046,0.00,VWS V14.01,2013-02-03 18:35:00,
2013-02-03 12:40:00,13.9,9.6,30.10,NNE,15,0.0,0.0,83,0.00,,OVC046,0.00,VWS V14.01,2013-02-03 18:40:00,
2013-02-03 12:45:00,14.0,10.0,30.10,NNE,15,0.0,0.0,84,0.00,,OVC046,0.00,VWS V14.01,2013-02-03 18:45:00,
2013-02-03 12:50:00,14.3,10.3,30.09,NNE,15,0.0,0.0,84,0.00,,OVC046,0.00,VWS V14.01,2013-02-03 18:50:00,
2013-02-03 12:55:00,14.1,9.9,30.09,NNE,15,0.0,0.0,83,0.00,,OVC046,0.00,VWS V14.01,2013-02-03 18:55:00,
2013-02-03 13:00:00,14.1,9.9,30.09,NNE,15,0.0,0.0,83,0.00,,OVC046,0.00,VWS V14.01,2013-02-03 19:00:00,
2013-02-03 13:10:00,14.1,9.9,30.08,NNE,15,0.0,0.0,83,0.00,,OVC065,0.00,VWS V14.01,2013-02-03 19:10:00,
2013-02-03 13:15:00,14.1,9.9,30.08,NNE,15,0.0,0.0,83,0.00,,OVC065,0.00,VWS V14.01,2013-02-03 19:15:00,
2013-02-03 13:20:00,14.1,9.9,30.07,NNE,15,0.0,0.0,83,0.00,,OVC065,0.00,VWS V14.01,2013-02-03 19:20:00,
2013-02-03 13:25:00,12.5,8.8,30.07,East,101,2.0,5.2,85,0.00,,OVC065,0.00,VWS V14.01,2013-02-03 19:25:00,
2013-02-03 13:30:00,12.6,8.9,30.07,East,99,0.0,2.1,85,0.00,,OVC065,0.00,VWS V14.01,2013-02-03 19:30:00,
2013-02-03 13:35:00,12.7,8.8,30.07,East,100,2.0,3.1,84,0.00,,OVC065,0.00,VWS V14.01,2013-02-03 19:35:00,
2013-02-03 13:40:00,12.7,8.8,30.07,East,100,0.0,3.1,84,0.00,,OVC065,0.00,VWS V14.01,2013-02-03 19:40:00,
2013-02-03 13:45:00,12.8,8.8,30.07,East,100,2.0,3.1,84,0.00,,OVC065,0.00,VWS V14.01,2013-02-03 19:45:00,
2013-02-03 13:50:00,12.9,8.9,30.07,SSE,151,3.0,4.2,84,0.00,,OVC065,0.00,VWS V14.01,2013-02-03 19:50:00,
2013-02-03 13:55:00,13.0,9.3,30.06,SSE,151,0.0,4.2,85,0.00,,OVC065,0.00,VWS V14.01,2013-02-03 19:55:00,
2013-02-03 14:00:00,13.2,9.5,30.06,SSE,151,2.0,4.2,85,0.00,,OVC065,0.00,VWS V14.01,2013-02-03 20:00:00,
2013-02-03 14:10:00,13.4,9.4,30.06,ESE,123,0.0,3.1,84,0.00,,OVC065,0.00,VWS V14.01,2013-02-03 20:10:00,
2013-02-03 14:15:00,13.6,9.6,30.05,ESE,123,0.0,0.0,84,0.00,,OVC065,0.00,VWS V14.01,2013-02-03 20:15:00,
2013-02-03 14:20:00,13.8,9.6,30.05,East,86,1.0,3.1,83,0.00,,OVC065,0.00,VWS V14.01,2013-02-03 20:20:00,
2013-02-03 14:25:00,13.6,9.4,30.05,ESE,107,1.0,4.2,83,0.00,,OVC065,0.00,VWS V14.01,2013-02-03 20:25:00,
2013-02-03 14:35:00,13.5,9.5,30.04,ESE,119,4.0,5.2,84,0.00,,OVC065,0.00,VWS V14.01,2013-02-03 20:35:00,
2013-02-03 14:40:00,13.4,9.4,30.04,ESE,113,3.0,4.2,84,0.00,,OVC065,0.00,VWS V14.01,2013-02-03 20:40:00,
2013-02-03 14:45:00,13.4,9.4,30.03,ESE,123,3.0,6.3,84,0.00,,OVC095,0.00,VWS V14.01,2013-02-03 20:45:00,
2013-02-03 14:50:00,13.4,9.4,30.04,East,98,2.0,4.2,84,0.00,,OVC095,0.00,VWS V14.01,2013-02-03 20:50:00,
2013-02-03 15:00:00,13.2,9.2,30.04,East,82,3.0,6.3,84,0.00,,OVC095,0.00,VWS V14.01,2013-02-03 21:00:00,
2013-02-03 15:05:00,13.1,9.4,30.03,East,89,5.0,6.3,85,0.00,,BKN095,0.00,VWS V14.01,2013-02-03 21:05:00,
2013-02-03 15:10:00,13.0,9.3,30.03,East,86,3.0,8.4,85,0.00,,BKN095,0.00,VWS V14.01,2013-02-03 21:10:00,
2013-02-03 15:15:00,13.1,9.4,30.03,East,96,6.0,7.3,85,0.00,,BKN095,0.00,VWS V14.01,2013-02-03 21:15:00,
2013-02-03 15:20:00,13.1,9.4,30.03,East,96,3.0,7.3,85,0.00,,BKN095,0.00,VWS V14.01,2013-02-03 21:20:00,
2013-02-03 15:25:00,13.2,9.8,30.03,ESE,105,7.0,7.3,86,0.00,,SCT095,0.00,VWS V14.01,2013-02-03 21:25:00,
2013-02-03 15:30:00,13.3,9.9,30.03,ESE,117,4.0,7.3,86,0.00,,SCT095,0.00,VWS V14.01,2013-02-03 21:30:00,
2013-02-03 15:35:00,13.3,9.9,30.03,SE,135,5.0,7.3,86,0.00,,SCT095,0.00,VWS V14.01,2013-02-03 21:35:00,
2013-02-03 15:45:00,13.3,9.9,30.02,East,94,5.0,7.3,86,0.00,,BKN095,0.00,VWS V14.01,2013-02-03 21:45:00,
2013-02-03 15:55:00,13.4,10.0,30.03,ESE,104,5.0,8.4,86,0.00,,BKN095,0.00,VWS V14.01,2013-02-03 21:55:00,
2013-02-03 16:00:00,13.4,10.2,30.03,ESE,109,4.0,6.3,87,0.00,,BKN095,0.00,VWS V14.01,2013-02-03 22:00:00,
2013-02-03 16:05:00,13.4,10.0,30.03,ESE,110,4.0,7.3,86,0.00,,SCT120,0.00,VWS V14.01,2013-02-03 22:05:00,
2013-02-03 16:10:00,13.3,9.6,30.03,ESE,111,4.0,7.3,85,0.00,,SCT120,0.00,VWS V14.01,2013-02-03 22:10:00,
2013-02-03 16:15:00,13.4,10.0,30.03,ESE,113,3.0,6.3,86,0.00,,SCT120,0.00,VWS V14.01,2013-02-03 22:15:00,
2013-02-03 16:20:00,13.4,10.0,30.03,East,101,3.0,5.2,86,0.00,,SCT120,0.00,VWS V14.01,2013-02-03 22:20:00,
2013-02-03 16:25:00,13.4,10.0,30.03,ESE,115,3.0,5.2,86,0.00,,BKN085,0.00,VWS V14.01,2013-02-03 22:25:00,
2013-02-03 16:30:00,13.5,10.1,30.03,East,98,2.0,5.2,86,0.00,,BKN085,0.00,VWS V14.01,2013-02-03 22:30:00,
2013-02-03 16:35:00,13.4,9.7,30.03,East,92,6.0,6.3,85,0.00,,BKN085,0.00,VWS V14.01,2013-02-03 22:35:00,
2013-02-03 16:40:00,13.4,9.7,30.03,East,98,5.0,6.3,85,0.00,,BKN085,0.00,VWS V14.01,2013-02-03 22:40:00,
2013-02-03 16:45:00,13.4,9.7,30.03,ESE,107,4.0,5.2,85,0.00,,OVC070,0.00,VWS V14.01,2013-02-03 22:45:00,
2013-02-03 16:50:00,13.4,10.0,30.02,ESE,109,3.0,5.2,86,0.00,,OVC070,0.00,VWS V14.01,2013-02-03 22:50:00,
2013-02-03 16:55:00,13.3,9.9,30.02,ESE,107,4.0,5.2,86,0.00,,OVC070,0.00,VWS V14.01,2013-02-03 22:55:00,
2013-02-03 17:00:00,13.3,9.9,30.02,East,99,5.0,7.3,86,0.00,,OVC070,0.00,VWS V14.01,2013-02-03 23:00:00,
2013-02-03 17:05:00,13.3,9.9,30.02,East,97,5.0,6.3,86,0.00,,,0.00,VWS V14.01,2013-02-03 23:05:00,
2013-02-03 17:10:00,13.3,9.9,30.02,East,90,5.0,6.3,86,0.00,,,0.00,VWS V14.01,2013-02-03 23:10:00,
2013-02-03 17:15:00,13.3,9.6,30.02,East,87,5.0,7.3,85,0.00,,,0.00,VWS V14.01,2013-02-03 23:15:00,
2013-02-03 17:20:00,13.3,9.6,30.02,East,96,6.0,7.3,85,0.00,,,0.00,VWS V14.01,2013-02-03 23:20:00,
2013-02-03 17:25:00,13.3,9.9,30.02,East,98,6.0,7.3,86,0.00,,OVC039,0.00,VWS V14.01,2013-02-03 23:25:00,
2013-02-03 17:30:00,13.4,10.0,30.02,East,92,3.0,7.3,86,0.00,,OVC039,0.00,VWS V14.01,2013-02-03 23:30:00,
2013-02-03 17:35:00,13.4,10.2,30.02,East,88,6.0,8.4,87,0.00,,OVC039,0.00,VWS V14.01,2013-02-03 23:35:00,
2013-02-03 17:40:00,13.4,10.0,30.02,East,84,7.0,7.3,86,0.00,,OVC039,0.00,VWS V14.01,2013-02-03 23:40:00,
2013-02-03 17:45:00,13.5,10.3,30.02,East,95,7.0,8.4,87,0.00,,,0.00,VWS V14.01,2013-02-03 23:45:00,
2013-02-03 17:50:00,13.4,10.0,30.02,East,80,7.0,8.4,86,0.00,,,0.00,VWS V14.01,2013-02-03 23:50:00,
2013-02-03 17:55:00,13.4,10.0,30.02,ENE,73,7.0,8.4,86,0.00,,,0.00,VWS V14.01,2013-02-03 23:55:00,
2013-02-03 18:00:00,13.3,10.1,30.02,East,90,7.0,8.4,87,0.00,,,0.00,VWS V14.01,2013-02-04 00:00:00,
2013-02-03 18:05:00,13.3,10.1,30.02,ENE,72,5.0,8.4,87,0.00,,,0.00,VWS V14.01,2013-02-04 00:05:00,
2013-02-03 18:15:00,13.1,10.4,30.01,East,89,7.0,9.4,89,0.00,,,0.00,VWS V14.01,2013-02-04 00:15:00,
2013-02-03 18:20:00,13.1,10.7,30.01,East,86,8.0,9.4,90,0.00,,,0.00,VWS V14.01,2013-02-04 00:20:00,
2013-02-03 18:25:00,13.0,10.6,30.01,East,93,6.0,9.4,90,0.00,,,0.00,VWS V14.01,2013-02-04 00:25:00,
2013-02-03 18:30:00,12.9,10.5,30.01,East,86,7.0,10.5,90,0.00,,,0.00,VWS V14.01,2013-02-04 00:30:00,
2013-02-03 18:35:00,12.9,10.8,30.01,East,80,7.0,9.4,91,0.00,,,0.00,VWS V14.01,2013-02-04 00:35:00,
2013-02-03 18:40:00,12.9,10.8,30.01,ENE,74,5.0,8.4,91,0.00,,,0.00,VWS V14.01,2013-02-04 00:40:00,
2013-02-03 18:45:00,13.0,10.9,30.00,East,80,8.0,9.4,91,0.00,,,0.00,VWS V14.01,2013-02-04 00:45:00,
2013-02-03 18:50:00,13.0,11.1,30.00,ENE,69,9.0,10.5,92,0.00,,,0.00,VWS V14.01,2013-02-04 00:50:00,
2013-02-03 18:55:00,12.9,11.0,30.00,ENE,63,7.0,11.5,92,0.00,,,0.00,VWS V14.01,2013-02-04 00:55:00,
2013-02-03 19:00:00,12.9,11.0,30.01,ENE,61,9.0,10.5,92,0.00,,,0.00,VWS V14.01,2013-02-04 01:00:00,
2013-02-03 19:05:00,13.0,11.1,30.01,NE,53,8.0,10.5,92,0.00,,,0.00,VWS V14.01,2013-02-04 01:05:00,
2013-02-03 19:10:00,12.9,11.0,30.00,ENE,63,10.0,10.5,92,0.00,,,0.00,VWS V14.01,2013-02-04 01:10:00,
2013-02-03 19:15:00,13.0,11.1,30.00,ENE,57,10.0,11.5,92,0.00,,,0.00,VWS V14.01,2013-02-04 01:15:00,
2013-02-03 19:20:00,13.0,11.1,30.00,NE,52,8.0,11.5,92,0.00,,,0.00,VWS V14.01,2013-02-04 01:20:00,
2013-02-03 19:25:00,13.0,11.1,30.00,ENE,61,13.0,13.6,92,0.00,,,0.00,VWS V14.01,2013-02-04 01:25:00,
2013-02-03 19:30:00,13.0,11.1,30.00,ENE,60,10.0,13.6,92,0.00,,,0.00,VWS V14.01,2013-02-04 01:30:00,
2013-02-03 19:35:00,13.0,11.1,30.00,NE,50,12.0,13.6,92,0.00,,,0.00,VWS V14.01,2013-02-04 01:35:00,
2013-02-03 19:40:00,12.9,11.0,30.00,NE,55,9.0,13.6,92,0.00,,,0.00,VWS V14.01,2013-02-04 01:40:00,
2013-02-03 19:45:00,12.9,11.0,30.00,NE,55,9.0,9.4,92,0.00,,,0.00,VWS V14.01,2013-02-04 01:45:00,
2013-02-03 19:50:00,12.9,11.0,30.00,NE,55,9.0,9.4,92,0.00,,,0.00,VWS V14.01,2013-02-04 01:50:00,
2013-02-03 19:55:00,12.9,11.0,30.00,NE,55,9.0,9.4,92,0.00,,,0.00,VWS V14.01,2013-02-04 01:55:00,
2013-02-03 20:00:00,12.9,11.0,29.99,NE,55,9.0,9.4,92,0.00,,,0.00,VWS V14.01,2013-02-04 02:00:00,
2013-02-03 20:05:00,12.9,11.0,29.99,NE,55,9.0,9.4,92,0.00,,,0.00,VWS V14.01,2013-02-04 02:05:00,
2013-02-03 20:10:00,12.7,10.6,30.00,NE,49,9.0,12.6,91,0.00,,,0.00,VWS V14.01,2013-02-04 02:10:00,
2013-02-03 20:15:00,12.7,10.6,30.01,NE,52,12.0,13.6,91,0.00,,,0.00,VWS V14.01,2013-02-04 02:15:00,
2013-02-03 20:20:00,12.6,10.4,30.00,NE,49,9.0,14.7,91,0.00,,,0.00,VWS V14.01,2013-02-04 02:20:00,
2013-02-03 20:25:00,12.6,10.4,30.00,NE,42,8.0,13.6,91,0.00,,OVC060,0.00,VWS V14.01,2013-02-04 02:25:00,
2013-02-03 20:30:00,12.5,10.4,30.00,NE,51,12.0,14.7,91,0.00,,OVC060,0.00,VWS V14.01,2013-02-04 02:30:00,
2013-02-03 20:35:00,12.5,10.4,30.01,NE,53,9.0,13.6,91,0.00,,OVC060,0.00,VWS V14.01,2013-02-04 02:35:00,
2013-02-03 20:40:00,12.5,10.4,30.01,NE,45,7.0,12.6,91,0.00,,OVC060,0.00,VWS V14.01,2013-02-04 02:40:00,
2013-02-03 20:45:00,12.5,10.4,30.01,NE,49,7.0,11.5,91,0.00,,OVC042,0.00,VWS V14.01,2013-02-04 02:45:00,
2013-02-03 20:50:00,12.5,10.4,30.02,NE,49,9.0,11.5,91,0.00,,OVC042,0.00,VWS V14.01,2013-02-04 02:50:00,
2013-02-03 20:55:00,12.5,10.4,30.02,NE,47,9.0,11.5,91,0.00,,OVC042,0.00,VWS V14.01,2013-02-04 02:55:00,
2013-02-03 21:00:00,12.5,10.4,30.02,NE,35,7.0,10.5,91,0.00,,OVC042,0.00,VWS V14.01,2013-02-04 03:00:00,
2013-02-03 21:05:00,12.4,10.5,30.02,NE,40,7.0,10.5,92,0.00,,,0.00,VWS V14.01,2013-02-04 03:05:00,
2013-02-03 21:10:00,12.2,10.1,30.02,NE,49,6.0,10.5,91,0.00,,,0.00,VWS V14.01,2013-02-04 03:10:00,
2013-02-03 21:15:00,12.1,10.2,30.02,NE,52,6.0,9.4,92,0.00,,,0.00,VWS V14.01,2013-02-04 03:15:00,
2013-02-03 21:20:00,12.1,10.2,30.03,NE,46,5.0,8.4,92,0.00,,,0.00,VWS V14.01,2013-02-04 03:20:00,
2013-02-03 21:25:00,12.1,10.2,30.02,NE,45,6.0,8.4,92,0.00,,,0.00,VWS V14.01,2013-02-04 03:25:00,
2013-02-03 21:30:00,11.9,10.0,30.03,ENE,57,7.0,9.4,92,0.00,,,0.00,VWS V14.01,2013-02-04 03:30:00,
2013-02-03 21:35:00,11.8,9.9,30.03,NE,50,7.0,8.4,92,0.00,,,0.00,VWS V14.01,2013-02-04 03:35:00,
2013-02-03 21:40:00,11.7,9.8,30.03,NE,45,7.0,8.4,92,0.00,,,0.00,VWS V14.01,2013-02-04 03:40:00,
2013-02-03 21:45:00,11.7,9.8,30.02,ENE,63,7.0,9.4,92,0.00,,,0.00,VWS V14.01,2013-02-04 03:45:00,
2013-02-03 21:50:00,11.6,9.7,30.02,ENE,61,7.0,9.4,92,0.00,,,0.00,VWS V14.01,2013-02-04 03:50:00,
2013-02-03 21:55:00,11.6,9.9,30.02,ENE,61,5.0,7.3,93,0.00,,,0.00,VWS V14.01,2013-02-04 03:55:00,
2013-02-03 22:00:00,11.6,9.9,30.02,NE,51,8.0,9.4,93,0.00,,,0.00,VWS V14.01,2013-02-04 04:00:00,
2013-02-03 22:10:00,11.5,9.9,30.02,NE,42,5.0,8.4,93,0.00,,,0.00,VWS V14.01,2013-02-04 04:10:00,
2013-02-03 22:15:00,11.5,9.9,30.01,NE,44,7.0,8.4,93,0.00,,,0.00,VWS V14.01,2013-02-04 04:15:00,
2013-02-03 22:20:00,11.5,9.9,30.01,NE,42,8.0,9.4,93,0.00,,,0.00,VWS V14.01,2013-02-04 04:20:00,
2013-02-03 22:25:00,11.5,9.9,30.01,NE,42,9.0,11.5,93,0.00,,,0.00,VWS V14.01,2013-02-04 04:25:00,
2013-02-03 22:30:00,11.5,9.9,30.01,NE,41,10.0,10.5,93,0.00,,,0.00,VWS V14.01,2013-02-04 04:30:00,
2013-02-03 22:35:00,11.4,9.8,30.02,NNE,30,7.0,11.5,93,0.00,,,0.00,VWS V14.01,2013-02-04 04:35:00,
2013-02-03 22:40:00,11.5,9.9,30.01,NE,36,8.0,10.5,93,0.00,,,0.00,VWS V14.01,2013-02-04 04:40:00,
2013-02-03 22:45:00,11.5,9.9,30.01,NE,39,9.0,11.5,93,0.00,,,0.00,VWS V14.01,2013-02-04 04:45:00,
2013-02-03 22:50:00,11.6,9.9,30.02,NE,43,9.0,10.5,93,0.00,,,0.00,VWS V14.01,2013-02-04 04:50:00,
2013-02-03 22:55:00,11.5,9.6,30.01,NE,45,10.0,10.5,92,0.00,,,0.00,VWS V14.01,2013-02-04 04:55:00,
2013-02-03 23:00:00,11.5,9.6,30.02,NE,46,7.0,10.5,92,0.00,,,0.00,VWS V14.01,2013-02-04 05:00:00,
2013-02-03 23:05:00,11.4,9.5,30.02,NE,43,9.0,11.5,92,0.00,,,0.00,VWS V14.01,2013-02-04 05:05:00,
2013-02-03 23:10:00,11.4,9.5,30.03,North,355,6.0,11.5,92,0.00,,,0.00,VWS V14.01,2013-02-04 05:10:00,
2013-02-03 23:15:00,11.4,9.5,30.03,NE,34,7.0,10.5,92,0.00,,,0.00,VWS V14.01,2013-02-04 05:15:00,
2013-02-03 23:20:00,11.2,9.3,30.02,NE,36,10.0,11.5,92,0.00,,,0.00,VWS V14.01,2013-02-04 05:20:00,
2013-02-03 23:25:00,11.1,9.2,30.02,NE,35,8.0,11.5,92,0.00,,,0.00,VWS V14.01,2013-02-04 05:25:00,
2013-02-03 23:30:00,11.0,9.1,30.02,NNE,32,7.0,10.5,92,0.00,,,0.00,VWS V14.01,2013-02-04 05:30:00,
2013-02-03 23:35:00,11.1,9.5,30.02,North,11,7.0,9.4,93,0.00,,,0.00,VWS V14.01,2013-02-04 05:35:00,
2013-02-03 23:40:00,11.1,9.2,30.02,NE,42,6.0,9.4,92,0.00,,,0.00,VWS V14.01,2013-02-04 05:40:00,
2013-02-03 23:45:00,11.1,9.2,30.02,North,11,5.0,8.4,92,0.00,,OVC037,0.00,VWS V14.01,2013-02-04 05:45:00,
2013-02-03 23:50:00,11.0,9.1,30.03,NE,34,9.0,12.6,92,0.00,,OVC037,0.00,VWS V14.01,2013-02-04 05:50:00,
2013-02-03 23:55:00,11.1,9.2,30.03,NNE,32,9.0,11.5,92,0.00,,OVC037,0.00,VWS V14.01,2013-02-04 05:55:00,